Time;durP1;ratioP1;P1;durP2;ratioP2;P2;SDS_P1;SDS_P2;PMS_P1;PMS_P2;Temp;Humidity;BMP_temperature;BMP_pressure;BME280_temperature;BME280_humidity;BME280_pressure;Samples;Min_cycle;Max_cycle;Signal;HPM_P1;HPM_P2
2023/08/13 00:00:01;;;;;;;13.15;3.10;;;18.30;99.90;;;18.98;73.88;100704.44;4982865;28;20047;-85
2023/08/13 00:02:28;;;;;;;10.35;3.60;;;18.30;99.90;;;18.97;73.73;100691.97;4997269;28;20044;-85
2023/08/13 00:04:55;;;;;;;9.50;3.55;;;18.30;99.90;;;18.96;73.93;100690.34;4986869;28;20097;-85
2023/08/13 00:07:24;;;;;;;8.20;3.28;;;18.30;99.90;;;18.96;73.62;100690.34;4988209;28;20086;-85
2023/08/13 00:09:51;;;;;;;9.48;3.50;;;18.30;99.90;;;18.95;73.55;100696.03;4966185;28;20081;-85
2023/08/13 00:12:18;;;;;;;12.07;3.33;;;18.30;99.90;;;18.94;73.87;100699.81;4988665;28;20114;-85
2023/08/13 00:14:46;;;;;;;6.68;3.17;;;18.30;99.90;;;18.92;73.71;100697.34;5000899;28;20043;-86
2023/08/13 00:17:13;;;;;;;9.93;3.22;;;18.30;99.90;;;18.91;73.67;100701.13;4988453;28;20118;-86
2023/08/13 00:19:40;;;;;;;10.23;3.03;;;18.20;99.90;;;18.89;73.74;100692.47;4991620;28;20038;-85
2023/08/13 00:22:10;;;;;;;9.30;3.17;;;18.20;99.90;;;18.88;74.07;100693.53;4982614;28;20133;-86
2023/08/13 00:24:39;;;;;;;10.13;3.50;;;18.20;99.90;;;18.88;74.04;100698.94;4981634;28;20054;-86
2023/08/13 00:27:06;;;;;;;8.40;3.17;;;18.20;99.90;;;18.89;74.11;100694.38;4981601;28;20046;-86
2023/08/13 00:29:34;;;;;;;5.65;3.15;;;18.20;99.90;;;18.88;73.96;100695.41;4996020;28;20047;-86
2023/08/13 00:32:01;;;;;;;7.32;3.35;;;18.20;99.90;;;18.87;73.97;100691.09;4982111;28;20130;-86
2023/08/13 00:34:28;;;;;;;7.20;3.45;;;18.20;99.90;;;18.85;73.81;100694.06;4981567;28;20109;-86
2023/08/13 00:36:56;;;;;;;8.55;3.85;;;18.20;99.90;;;18.86;73.67;100695.69;4998118;28;20038;-86
2023/08/13 00:39:23;;;;;;;11.88;3.80;;;18.20;99.90;;;18.84;73.66;100697.84;4988324;28;20085;-86
2023/08/13 00:41:53;;;;;;;8.52;3.67;;;18.10;99.90;;;18.84;73.91;100710.53;4984103;28;20395;-86
2023/08/13 00:44:20;;;;;;;11.45;4.57;;;18.10;99.90;;;18.83;73.99;100703.50;4989139;28;20467;-86
2023/08/13 00:46:47;;;;;;;9.57;4.10;;;18.10;99.90;;;18.83;74.16;100715.13;4990459;28;20035;-86
2023/08/13 00:49:15;;;;;;;9.18;3.75;;;18.20;99.90;;;18.83;74.39;100711.59;4988915;28;20070;-86
2023/08/13 00:51:48;;;;;;;12.88;3.63;;;18.20;99.90;;;18.81;74.46;100714.56;4987965;28;20455;-86
2023/08/13 00:54:16;;;;;;;9.43;4.15;;;18.10;99.90;;;18.83;74.40;100725.13;4978444;28;20050;-85
2023/08/13 00:56:46;;;;;;;8.30;3.75;;;18.10;99.90;;;18.82;74.58;100726.19;4989583;28;20133;-85
2023/08/13 00:59:15;;;;;;;8.15;3.60;;;18.10;99.90;;;18.83;74.39;100717.00;4974182;28;20599;-85
2023/08/13 01:01:43;;;;;;;8.05;4.03;;;18.20;99.90;;;18.80;74.55;100725.66;4980173;28;20042;-86
2023/08/13 01:04:11;;;;;;;13.35;3.75;;;18.10;99.90;;;18.79;75.10;100722.13;4995294;28;20078;-85
2023/08/13 01:06:47;;;;;;;13.27;4.20;;;18.10;99.90;;;18.78;74.96;100717.78;4984752;28;20041;-85
2023/08/13 01:09:25;;;;;;;10.88;3.63;;;18.20;99.90;;;18.78;74.79;100723.19;4979260;28;20051;-85
2023/08/13 01:12:00;;;;;;;8.98;3.63;;;18.10;99.90;;;18.75;74.84;100719.13;5007338;28;20483;-85
2023/08/13 01:14:40;;;;;;;8.43;3.88;;;18.10;99.90;;;18.72;74.79;100713.44;4983928;28;20134;-85
2023/08/13 01:17:09;;;;;;;9.88;3.70;;;18.10;99.90;;;18.73;74.60;100723.16;4983873;28;20046;-85
2023/08/13 01:19:36;;;;;;;9.20;3.83;;;18.10;99.90;;;18.72;74.66;100726.94;4986612;28;20077;-86
2023/08/13 01:22:03;;;;;;;9.70;3.50;;;18.10;99.90;;;18.70;74.40;100719.09;4979644;28;20109;-86
2023/08/13 01:24:32;;;;;;;11.77;4.35;;;18.10;99.90;;;18.69;74.56;100720.19;4984811;28;20495;-86
2023/08/13 01:27:12;;;;;;;9.77;3.60;;;18.10;99.90;;;18.68;74.43;100723.94;4994309;28;20046;-86
2023/08/13 01:29:47;;;;;;;10.20;3.70;;;18.00;99.90;;;18.67;74.41;100726.88;4984865;28;20070;-86
2023/08/13 01:32:21;;;;;;;7.60;3.85;;;18.00;99.90;;;18.66;74.48;100722.53;4982571;28;20038;-86
2023/08/13 01:34:50;;;;;;;12.05;4.25;;;18.00;99.90;;;18.66;74.30;100717.13;4998513;28;20130;-86
2023/08/13 01:37:19;;;;;;;13.02;4.13;;;18.00;99.90;;;18.65;74.19;100723.63;4984878;28;20058;-86
2023/08/13 01:39:49;;;;;;;9.68;4.13;;;18.00;99.90;;;18.63;74.28;100723.03;4980520;28;20077;-86
2023/08/13 01:42:16;;;;;;;14.73;4.20;;;18.00;99.90;;;18.63;74.46;100731.16;4988033;28;20065;-86
2023/08/13 01:44:44;;;;;;;7.20;3.70;;;18.00;99.90;;;18.62;74.10;100724.94;4979727;28;20065;-85
2023/08/13 01:47:12;;;;;;;11.02;4.13;;;18.00;99.90;;;18.60;73.99;100724.41;4985899;28;20072;-85
2023/08/13 01:49:39;;;;;;;9.88;3.97;;;17.90;99.90;;;18.59;73.91;100724.63;4970030;28;20047;-85
2023/08/13 01:52:06;;;;;;;8.38;3.58;;;17.90;99.90;;;18.59;73.91;100724.63;4983816;28;20125;-85
2023/08/13 01:54:34;;;;;;;10.50;3.80;;;17.90;99.90;;;18.58;73.80;100720.31;4974781;28;20213;-85
2023/08/13 01:57:03;;;;;;;12.23;3.70;;;17.90;99.90;;;18.56;73.52;100730.56;4980405;28;20038;-85
2023/08/13 01:59:30;;;;;;;11.02;3.63;;;17.90;99.90;;;18.55;74.03;100723.53;4975144;28;20578;-85
2023/08/13 02:01:58;;;;;;;12.57;3.78;;;17.90;99.90;;;18.55;73.47;100737.06;4989823;28;20046;-85
2023/08/13 02:04:25;;;;;;;9.38;3.72;;;17.90;99.90;;;18.52;73.33;100735.66;4985476;28;20112;-86
2023/08/13 02:06:55;;;;;;;13.43;3.92;;;17.90;99.90;;;18.51;73.34;100740.25;4990831;28;20049;-86
2023/08/13 02:09:22;;;;;;;10.90;3.40;;;17.90;99.90;;;18.50;73.38;100735.94;4976297;28;20113;-85
2023/08/13 02:11:50;;;;;;;14.68;3.95;;;17.90;99.90;;;18.49;73.55;100731.56;4981264;28;20487;-86
2023/08/13 02:14:18;;;;;;;12.88;3.60;;;17.90;99.90;;;18.47;73.60;100728.31;4976175;28;20126;-85
2023/08/13 02:16:46;;;;;;;10.43;3.65;;;17.80;99.90;;;18.47;73.59;100730.22;4972900;28;20416;-85
2023/08/13 02:19:13;;;;;;;12.18;3.50;;;17.80;99.90;;;18.46;73.54;100726.69;4990411;28;20074;-86
2023/08/13 02:21:41;;;;;;;8.77;3.42;;;17.80;99.90;;;18.46;73.57;100732.09;4990069;28;20085;-86
2023/08/13 02:24:08;;;;;;;10.10;3.70;;;17.80;99.90;;;18.46;73.66;100725.91;5001885;28;20533;-85
2023/08/13 02:26:35;;;;;;;10.90;3.30;;;17.80;99.90;;;18.45;73.48;100724.28;4989404;28;20141;-86
2023/08/13 02:29:03;;;;;;;9.32;3.88;;;17.80;99.90;;;18.43;73.47;100724.50;4984944;28;20741;-86
2023/08/13 02:31:31;;;;;;;11.15;3.75;;;17.80;99.90;;;18.42;73.66;100722.88;4986278;28;20804;-86
2023/08/13 02:33:59;;;;;;;9.68;3.67;;;17.80;99.90;;;18.40;73.66;100719.63;4990788;28;20121;-85
2023/08/13 02:36:26;;;;;;;8.82;3.78;;;17.80;99.90;;;18.40;73.74;100722.34;4987219;28;20153;-86
2023/08/13 02:38:53;;;;;;;10.27;3.85;;;17.80;99.90;;;18.37;73.73;100720.13;4993039;28;20132;-85
2023/08/13 02:41:21;;;;;;;14.88;3.38;;;17.70;99.90;;;18.37;73.86;100717.44;4986463;28;20421;-85
2023/08/13 02:43:53;;;;;;;8.95;3.25;;;17.70;99.90;;;18.37;73.86;100720.13;5001117;28;20822;-86
2023/08/13 02:46:31;;;;;;;12.00;4.05;;;17.70;99.90;;;18.37;73.75;100725.53;4986851;28;20051;-85
2023/08/13 02:48:59;;;;;;;12.20;3.40;;;17.80;99.90;;;18.37;73.92;100722.84;4988891;28;20050;-85
2023/08/13 02:51:27;;;;;;;15.75;3.88;;;17.70;99.90;;;18.35;73.86;100725.00;4993275;28;20053;-85
2023/08/13 02:53:55;;;;;;;9.10;3.85;;;17.70;99.90;;;18.34;73.98;100723.34;4986907;28;20045;-85
2023/08/13 02:56:22;;;;;;;10.38;3.35;;;17.70;99.90;;;18.34;73.60;100723.34;4984463;28;20132;-85
2023/08/13 02:58:49;;;;;;;10.35;3.90;;;17.70;99.90;;;18.33;73.67;100729.00;4984242;28;20137;-85
2023/08/13 03:01:17;;;;;;;11.25;3.80;;;17.70;99.90;;;18.31;73.54;100723.06;4988658;28;20049;-85
2023/08/13 03:03:44;;;;;;;11.40;3.90;;;17.70;99.90;;;18.31;73.66;100723.06;5000555;28;20089;-85
2023/08/13 03:06:13;;;;;;;10.07;4.05;;;17.70;99.90;;;18.28;73.39;100719.78;5006800;28;20073;-85
2023/08/13 03:08:40;;;;;;;11.95;4.00;;;17.70;99.90;;;18.27;73.21;100717.34;4981175;28;20070;-85
2023/08/13 03:11:07;;;;;;;12.48;4.00;;;17.60;99.90;;;18.24;73.41;100713.25;4988661;28;20079;-85
2023/08/13 03:13:35;;;;;;;7.85;3.53;;;17.60;99.90;;;18.23;73.10;100713.53;4992217;28;20039;-85
2023/08/13 03:16:03;;;;;;;12.88;3.70;;;17.60;99.90;;;18.20;73.06;100709.47;4981088;28;20046;-85
2023/08/13 03:18:31;;;;;;;10.20;3.67;;;17.50;99.90;;;18.17;73.05;100712.66;4981259;28;20047;-85
2023/08/13 03:21:01;;;;;;;14.73;4.00;;;17.50;99.90;;;18.16;72.74;100719.16;4982216;28;20054;-85
2023/08/13 03:23:32;;;;;;;11.00;3.60;;;17.50;99.90;;;18.15;73.00;100713.97;4988820;28;20051;-85
2023/08/13 03:25:59;;;;;;;10.88;4.57;;;17.50;99.90;;;18.14;72.50;100712.34;4992772;28;20042;-85
2023/08/13 03:28:26;;;;;;;10.93;4.00;;;17.50;99.90;;;18.12;72.74;100714.50;4987916;28;20101;-86
2023/08/13 03:30:59;;;;;;;14.80;4.45;;;17.40;99.90;;;18.10;72.65;100708.53;4988169;28;20419;-85
2023/08/13 03:33:32;;;;;;;10.93;3.60;;;17.40;99.90;;;18.09;72.67;100709.59;4982239;28;20062;-85
2023/08/13 03:36:00;;;;;;;11.18;3.47;;;17.40;99.90;;;18.06;72.44;100705.56;4982883;28;20513;-85
2023/08/13 03:38:27;;;;;;;8.77;3.85;;;17.40;99.90;;;18.05;72.68;100717.38;4992784;28;20140;-85
2023/08/13 03:40:56;;;;;;;9.60;3.03;;;17.40;99.90;;;18.04;72.45;100715.78;4989610;28;20049;-85
2023/08/13 03:43:24;;;;;;;7.60;3.20;;;17.40;99.90;;;18.04;72.44;100714.97;4976595;28;20043;-85
2023/08/13 03:45:51;;;;;;;10.45;3.40;;;17.40;99.90;;;18.01;72.44;100711.72;4997249;28;20039;-85
2023/08/13 03:48:18;;;;;;;8.18;3.03;;;17.30;99.90;;;18.01;72.75;100713.59;4989763;28;20042;-85
2023/08/13 03:50:46;;;;;;;8.45;3.10;;;17.30;99.90;;;18.02;72.41;100720.63;4993684;28;20126;-85
2023/08/13 03:53:14;;;;;;;9.32;3.40;;;17.40;99.90;;;17.97;72.48;100718.69;4987469;28;20610;-85
2023/08/13 03:55:42;;;;;;;12.65;3.30;;;17.30;99.90;;;17.98;72.81;100716.78;4991379;28;20499;-85
2023/08/13 03:58:11;;;;;;;9.45;2.78;;;17.30;99.90;;;17.95;72.37;100715.41;4985921;28;20065;-85
2023/08/13 04:00:38;;;;;;;11.75;3.00;;;17.30;99.90;;;17.96;72.35;100721.66;4990028;28;20099;-85
2023/08/13 04:03:08;;;;;;;11.38;3.00;;;17.30;99.90;;;17.94;72.60;100727.28;4984494;28;20142;-85
2023/08/13 04:05:36;;;;;;;13.63;3.25;;;17.30;99.90;;;17.94;72.67;100732.66;4992329;28;20042;-85
2023/08/13 04:08:03;;;;;;;12.10;3.08;;;17.30;99.90;;;17.95;72.58;100731.59;4991805;28;20046;-85
2023/08/13 04:10:31;;;;;;;9.90;2.70;;;17.30;99.90;;;17.93;72.43;100728.34;4992351;28;20043;-85
2023/08/13 04:13:00;;;;;;;12.45;2.92;;;17.20;99.90;;;17.93;72.41;100731.03;4981658;28;20146;-85
2023/08/13 04:15:30;;;;;;;9.45;2.63;;;17.20;99.90;;;17.91;72.19;100735.91;4988397;28;20134;-85
2023/08/13 04:17:58;;;;;;;8.48;3.00;;;17.20;99.90;;;17.89;72.15;100735.31;4997551;28;20089;-85
2023/08/13 04:20:26;;;;;;;7.78;2.70;;;17.20;99.90;;;17.89;72.34;100729.09;4997533;28;20053;-86
2023/08/13 04:22:54;;;;;;;9.23;2.60;;;17.20;99.90;;;17.88;72.23;100741.78;4982017;28;20097;-85
2023/08/13 04:25:21;;;;;;;7.97;2.95;;;17.20;99.90;;;17.88;72.24;100738.28;4974206;28;20047;-85
2023/08/13 04:27:49;;;;;;;6.05;2.25;;;17.20;99.90;;;17.86;72.27;100737.69;4989739;28;20062;-85
2023/08/13 04:30:16;;;;;;;5.82;2.20;;;17.20;99.90;;;17.84;72.43;100732.56;4983318;28;20174;-85
2023/08/13 04:32:54;;;;;;;6.88;2.42;;;17.20;99.90;;;17.85;72.43;100722.59;4990138;28;20070;-85
2023/08/13 04:35:24;;;;;;;9.35;2.53;;;17.20;99.90;;;17.84;72.21;100724.47;4986218;28;20072;-85
2023/08/13 04:37:51;;;;;;;10.25;2.83;;;17.20;99.90;;;17.85;72.63;100736.88;5002883;28;20042;-85
2023/08/13 04:40:21;;;;;;;14.45;2.60;;;17.20;99.90;;;17.84;72.43;100739.84;4978318;28;20046;-85
2023/08/13 04:42:49;;;;;;;10.80;3.13;;;17.20;99.90;;;17.83;72.59;100744.44;4978494;28;20062;-85
2023/08/13 04:45:17;;;;;;;10.60;2.88;;;17.20;99.90;;;17.82;72.95;100740.09;4968997;28;20510;-85
2023/08/13 04:47:46;;;;;;;7.55;2.83;;;17.20;99.90;;;17.81;72.88;100740.34;4967005;28;20043;-85
2023/08/13 04:50:14;;;;;;;9.15;3.53;;;17.20;99.90;;;17.78;73.35;100747.06;4980406;28;20046;-85
2023/08/13 04:52:41;;;;;;;12.63;3.97;;;17.20;99.90;;;17.81;73.10;100745.72;4990742;28;20097;-85
2023/08/13 04:55:09;;;;;;;11.30;3.50;;;17.20;99.90;;;17.81;73.26;100737.63;4962251;28;20104;-85
2023/08/13 04:57:36;;;;;;;6.28;3.45;;;17.20;99.90;;;17.84;73.10;100743.34;4984233;28;20073;-85
2023/08/13 05:00:08;;;;;;;8.68;3.90;;;17.20;99.90;;;17.86;73.19;100740.41;4983543;28;20083;-85
2023/08/13 05:02:39;;;;;;;12.15;3.67;;;17.30;99.90;;;17.86;73.45;100737.69;4989604;28;20053;-85
2023/08/13 05:05:09;;;;;;;9.15;3.50;;;17.30;99.90;;;17.88;73.57;100728.28;4981938;28;20058;-85
2023/08/13 05:07:37;;;;;;;14.15;3.38;;;17.30;99.90;;;17.92;73.87;100734.00;5002254;28;20050;-85
2023/08/13 05:10:07;;;;;;;13.93;3.78;;;17.30;99.90;;;17.93;73.35;100728.34;4988086;28;20058;-85
2023/08/13 05:12:34;;;;;;;13.23;3.60;;;17.40;99.90;;;17.97;73.56;100739.47;4980050;28;20105;-85
2023/08/13 05:15:03;;;;;;;9.27;3.10;;;17.40;99.90;;;18.00;72.95;100726.25;4987567;28;20047;-85
2023/08/13 05:17:34;;;;;;;7.57;3.50;;;17.40;99.90;;;18.05;73.48;100736.28;4979288;28;20094;-85
2023/08/13 05:20:02;;;;;;;10.25;3.17;;;17.50;99.90;;;18.07;73.30;100738.75;4987903;28;20113;-85
2023/08/13 05:22:30;;;;;;;9.23;3.30;;;17.50;99.90;;;18.08;73.09;100738.50;4991547;28;20089;-85
2023/08/13 05:24:58;;;;;;;13.02;3.50;;;17.50;99.90;;;18.10;73.62;100736.34;4980285;28;20050;-85
2023/08/13 05:27:25;;;;;;;9.40;3.50;;;17.50;99.90;;;18.12;73.84;100733.41;4987200;28;20039;-85
2023/08/13 05:29:52;;;;;;;8.70;3.55;;;17.60;99.90;;;18.12;73.84;100731.53;5004245;28;20042;-85
2023/08/13 05:32:22;;;;;;;10.80;3.05;;;17.60;99.90;;;18.12;73.73;100730.72;4991625;28;20050;-85
2023/08/13 05:34:49;;;;;;;7.53;3.30;;;17.60;99.90;;;18.12;74.00;100728.00;4981464;28;20034;-85
2023/08/13 05:37:18;;;;;;;12.73;3.40;;;17.60;99.90;;;18.09;73.92;100726.63;4984672;28;20154;-85
2023/08/13 05:39:47;;;;;;;9.95;3.78;;;17.60;99.90;;;18.10;74.46;100732.81;4973553;28;20038;-85
2023/08/13 05:42:14;;;;;;;9.60;3.10;;;17.60;99.90;;;18.11;74.56;100732.59;4976466;28;20428;-85
2023/08/13 05:44:42;;;;;;;15.85;3.33;;;17.60;99.90;;;18.11;74.91;100731.78;4998518;28;20146;-85
2023/08/13 05:47:11;;;;;;;5.57;2.90;;;17.60;99.90;;;18.11;75.06;100727.19;5002328;28;20097;-85
2023/08/13 05:49:38;;;;;;;9.90;3.50;;;17.60;99.90;;;18.10;75.00;100739.03;4999298;28;20126;-85
2023/08/13 05:52:06;;;;;;;8.85;3.10;;;17.60;99.90;;;18.11;74.89;100739.88;4979572;28;20093;-85
2023/08/13 05:54:34;;;;;;;8.55;3.10;;;17.60;99.90;;;18.10;74.74;100746.31;4987098;28;20580;-85
2023/08/13 05:57:02;;;;;;;8.35;3.30;;;17.60;99.90;;;18.12;74.71;100741.50;4991369;28;20034;-85
2023/08/13 05:59:33;;;;;;;10.27;3.50;;;17.60;99.90;;;18.12;75.55;100736.09;4985921;28;20047;-85
2023/08/13 06:02:00;;;;;;;9.80;3.88;;;17.70;99.90;;;18.13;75.58;100741.25;4980754;28;20053;-85
2023/08/13 06:04:27;;;;;;;10.63;3.88;;;17.70;99.90;;;18.14;75.75;100747.44;4987459;28;20519;-85
2023/08/13 06:06:55;;;;;;;8.68;3.35;;;17.70;99.90;;;18.14;76.51;100745.56;4982340;28;20130;-85
2023/08/13 06:09:22;;;;;;;13.00;4.07;;;17.70;99.90;;;18.17;76.72;100736.97;4981302;28;20080;-85
2023/08/13 06:11:50;;;;;;;15.05;3.25;;;17.70;99.90;;;18.20;77.07;100743.72;4989202;28;20050;-85
2023/08/13 06:14:18;;;;;;;14.57;3.25;;;17.70;99.90;;;18.21;77.44;100734.59;5001302;28;20407;-85
2023/08/13 06:16:46;;;;;;;10.55;3.05;;;17.80;99.90;;;18.21;77.73;100740.78;4995689;28;20431;-85
2023/08/13 06:19:13;;;;;;;7.05;2.92;;;17.80;99.90;;;18.23;77.72;100743.22;4977314;28;20074;-85
2023/08/13 06:21:43;;;;;;;4.88;2.90;;;17.80;99.90;;;18.25;78.26;100746.47;4974259;28;20070;-85
2023/08/13 06:24:10;;;;;;;6.75;2.70;;;17.80;99.90;;;18.24;78.75;100744.84;4976721;28;20125;-85
2023/08/13 06:26:38;;;;;;;7.82;2.90;;;17.80;99.90;;;18.26;78.81;100750.81;4990121;28;20065;-85
2023/08/13 06:29:05;;;;;;;8.07;2.92;;;17.80;99.90;;;18.29;79.07;100736.78;4998067;28;20053;-85
2023/08/13 06:31:35;;;;;;;8.95;3.13;;;17.90;99.90;;;18.33;79.83;100737.91;4992692;28;20150;-85
2023/08/13 06:34:02;;;;;;;10.05;3.08;;;17.90;99.90;;;18.40;80.88;100732.31;4983465;28;20050;-85
2023/08/13 06:36:30;;;;;;;8.10;3.10;;;18.10;99.90;;;18.43;80.57;100743.41;4984450;28;20089;-84
2023/08/13 06:38:57;;;;;;;10.43;3.05;;;18.10;99.90;;;18.49;80.65;100744.25;4988138;28;20045;-86
2023/08/13 06:41:24;;;;;;;11.10;3.17;;;18.20;99.90;;;18.54;80.52;100757.81;4955576;28;20078;-88
2023/08/13 06:43:55;;;;;;;12.32;3.50;;;18.30;99.90;;;18.63;80.90;100758.16;4995577;28;20051;-89
2023/08/13 06:46:23;;;;;;;9.32;3.30;;;18.40;99.90;;;18.63;80.83;100750.88;4985556;28;20050;-89
2023/08/13 06:48:51;;;;;;;9.32;2.88;;;18.40;99.90;;;18.64;80.85;100749.81;4987103;28;20113;-89
2023/08/13 06:51:19;;;;;;;10.90;3.38;;;18.40;99.90;;;18.66;80.45;100752.25;4990022;28;20054;-89
2023/08/13 06:53:46;;;;;;;11.93;2.95;;;18.40;99.90;;;18.68;80.47;100750.09;4982369;28;20051;-89
2023/08/13 06:56:14;;;;;;;11.13;3.35;;;18.40;99.90;;;18.70;80.01;100756.13;4987919;28;20057;-89
2023/08/13 06:58:41;;;;;;;13.10;3.70;;;18.50;99.90;;;18.72;80.33;100745.84;4984491;28;20042;-88
2023/08/13 07:01:08;;;;;;;11.43;3.03;;;18.50;99.90;;;18.75;80.96;100751.56;4982969;28;20551;-88
2023/08/13 07:03:36;;;;;;;12.23;3.42;;;18.50;99.90;;;18.79;81.11;100746.47;4980917;28;20039;-88
2023/08/13 07:06:05;;;;;;;10.93;3.33;;;18.60;99.90;;;18.84;82.07;100748.34;5003991;28;20050;-88
2023/08/13 07:08:32;;;;;;;14.27;3.58;;;18.60;99.90;;;18.83;81.69;100742.13;4990227;28;20046;-88
2023/08/13 07:11:00;;;;;;;13.00;3.35;;;18.60;99.90;;;18.89;81.12;100749.22;4981009;28;20047;-89
2023/08/13 07:13:28;;;;;;;12.40;3.33;;;18.70;99.90;;;18.94;80.30;100738.47;4974554;28;20043;-87
2023/08/13 07:15:55;;;;;;;10.05;2.80;;;18.70;99.90;;;18.96;78.44;100740.88;5002988;28;20133;-88
2023/08/13 07:18:22;;;;;;;12.05;3.20;;;18.80;99.90;;;18.97;77.09;100743.31;4991696;28;20062;-89
2023/08/13 07:20:50;;;;;;;9.13;3.33;;;18.80;99.90;;;18.98;77.01;100750.38;4995506;28;20048;-88
2023/08/13 07:23:18;;;;;;;12.27;3.15;;;18.80;99.90;;;18.98;77.33;100747.69;4975388;28;20043;-87
2023/08/13 07:25:46;;;;;;;8.63;3.53;;;18.80;99.90;;;19.01;77.92;100741.72;4982867;28;20038;-87
2023/08/13 07:28:13;;;;;;;9.43;3.38;;;18.90;99.90;;;19.04;76.87;100743.13;4971289;28;20092;-87
2023/08/13 07:30:41;;;;;;;13.98;3.42;;;18.90;99.90;;;19.22;75.99;100744.56;5005778;28;20039;-86
2023/08/13 07:33:08;;;;;;;10.13;3.42;;;19.20;99.90;;;19.36;76.46;100744.91;5009973;28;20094;-86
2023/08/13 07:35:36;;;;;;;14.32;3.70;;;19.40;99.90;;;19.48;77.42;100749.03;5001050;28;20054;-88
2023/08/13 07:38:04;;;;;;;10.00;3.00;;;19.50;99.90;;;19.59;76.41;100754.50;5018059;28;20420;-86
2023/08/13 07:40:34;;;;;;;8.80;2.92;;;19.70;99.90;;;19.68;75.05;100753.75;4989037;28;20459;-86
2023/08/13 07:43:02;;;;;;;13.05;2.88;;;19.80;99.90;;;19.67;74.20;100751.31;4979753;28;20043;-87
2023/08/13 07:45:29;;;;;;;11.93;2.85;;;19.80;99.90;;;19.68;74.15;100756.47;4985719;28;20038;-88
2023/08/13 07:47:57;;;;;;;13.98;2.95;;;19.80;99.90;;;19.75;72.91;100753.50;4983139;28;20051;-87
2023/08/13 07:50:24;;;;;;;14.13;3.20;;;20.00;99.90;;;19.89;75.18;100754.63;4999252;28;20070;-87
2023/08/13 07:52:51;;;;;;;12.57;2.72;;;20.10;99.90;;;19.97;73.94;100753.31;4983721;28;20133;-88
2023/08/13 07:55:19;;;;;;;14.40;3.15;;;20.20;99.90;;;20.03;73.27;100749.53;4983260;28;20153;-88
2023/08/13 07:57:48;;;;;;;12.23;2.83;;;20.30;99.90;;;20.08;71.16;100748.72;4986877;28;20506;-89
2023/08/13 08:00:16;;;;;;;12.32;2.95;;;20.30;99.90;;;20.17;74.06;100745.22;4996028;28;20503;-87
2023/08/13 08:02:46;;;;;;;12.25;3.08;;;20.40;99.90;;;20.26;75.24;100742.81;4983203;28;20873;-87
2023/08/13 08:05:13;;;;;;;6.20;2.30;;;20.50;99.90;;;20.32;72.73;100745.25;4982584;28;20407;-87
2023/08/13 08:07:41;;;;;;;10.48;2.60;;;20.60;99.90;;;20.44;73.19;100749.59;4991764;28;20042;-87
2023/08/13 08:10:09;;;;;;;7.30;2.78;;;20.70;99.90;;;20.52;72.43;100749.91;4990183;28;20042;-87
2023/08/13 08:12:36;;;;;;;10.90;2.75;;;20.80;99.90;;;20.62;70.22;100746.38;4989478;28;20613;-87
2023/08/13 08:15:06;;;;;;;7.32;2.33;;;20.90;99.90;;;20.65;70.98;100745.84;4989391;28;20046;-87
2023/08/13 08:17:35;;;;;;;9.73;2.40;;;21.00;99.90;;;20.61;69.22;100750.19;4982364;28;20073;-87
2023/08/13 08:20:02;;;;;;;8.60;2.45;;;20.90;99.90;;;20.53;67.64;100746.09;4972835;28;20042;-87
2023/08/13 08:22:30;;;;;;;9.57;2.47;;;20.80;99.90;;;20.51;69.16;100745.56;4985072;28;20038;-87
2023/08/13 08:24:57;;;;;;;10.30;2.33;;;20.80;99.90;;;20.57;67.88;100739.06;4983661;28;20038;-87
2023/08/13 08:27:24;;;;;;;9.13;2.08;;;20.80;99.90;;;20.53;69.20;100737.16;4989101;28;20407;-87
2023/08/13 08:29:51;;;;;;;11.57;2.50;;;20.80;99.90;;;20.47;68.48;100733.63;4991661;28;20108;-87
2023/08/13 08:32:20;;;;;;;7.53;2.13;;;20.70;99.90;;;20.46;69.24;100732.00;4996124;28;20046;-87
2023/08/13 08:34:47;;;;;;;6.65;1.98;;;20.70;99.90;;;20.54;69.89;100738.78;4983442;28;20038;-87
2023/08/13 08:37:15;;;;;;;7.18;2.00;;;20.80;99.90;;;20.58;69.93;100729.03;4983926;28;20157;-87
2023/08/13 08:39:42;;;;;;;7.35;2.08;;;20.80;99.90;;;20.60;68.26;100729.59;4984372;28;20078;-87
2023/08/13 08:42:11;;;;;;;11.52;2.40;;;20.80;99.90;;;20.64;68.82;100735.25;4989078;28;20062;-87
2023/08/13 08:44:43;;;;;;;10.20;2.47;;;20.90;99.90;;;20.64;66.28;100736.06;4981507;28;20031;-87
2023/08/13 08:47:10;;;;;;;9.63;2.08;;;20.90;99.90;;;20.69;68.90;100733.38;4981862;28;20038;-87
2023/08/13 08:49:42;;;;;;;9.65;2.40;;;20.90;99.90;;;20.72;68.76;100724.69;4981144;28;20165;-87
2023/08/13 08:52:11;;;;;;;8.38;1.98;;;21.00;99.90;;;20.76;70.18;100730.38;4997403;28;20124;-87
2023/08/13 08:54:39;;;;;;;7.90;2.10;;;21.00;99.90;;;20.74;68.42;100725.25;4977510;28;20035;-87
2023/08/13 08:57:07;;;;;;;13.07;2.22;;;21.00;99.90;;;20.77;67.40;100723.88;4973713;28;20049;-87
2023/08/13 08:59:35;;;;;;;9.38;2.50;;;21.00;99.90;;;20.88;67.86;100716.53;4990230;28;20423;-87
2023/08/13 09:02:02;;;;;;;8.25;2.15;;;21.20;99.90;;;20.97;68.45;100710.28;4988346;28;20039;-87
2023/08/13 09:04:30;;;;;;;6.93;2.10;;;21.30;99.90;;;21.04;66.50;100718.16;4986530;28;20078;-87
2023/08/13 09:07:01;;;;;;;9.85;2.35;;;21.40;99.90;;;21.07;64.45;100712.97;4988377;28;20038;-87
2023/08/13 09:09:30;;;;;;;9.10;2.20;;;21.40;99.90;;;21.11;66.14;100713.22;5000049;28;20042;-87
2023/08/13 09:11:58;;;;;;;10.90;2.25;;;21.50;99.90;;;21.12;64.99;100717.56;4982011;28;20038;-87
2023/08/13 09:14:26;;;;;;;9.43;2.08;;;21.50;99.90;;;21.15;65.47;100719.75;4988645;28;20122;-87
2023/08/13 09:16:57;;;;;;;7.97;1.80;;;21.50;99.90;;;21.14;63.01;100725.44;4984786;28;20133;-87
2023/08/13 09:19:27;;;;;;;10.50;2.00;;;21.50;99.00;;;21.15;65.19;100718.94;4985682;28;20114;-87
2023/08/13 09:21:59;;;;;;;8.90;2.20;;;21.50;99.90;;;21.19;67.55;100717.28;4996515;28;20050;-87
2023/08/13 09:24:34;;;;;;;11.90;2.40;;;21.50;99.90;;;21.20;65.15;100713.50;4989678;28;20046;-87
2023/08/13 09:27:02;;;;;;;9.35;2.10;;;21.50;99.90;;;21.20;66.08;100713.50;5004132;28;20121;-87
2023/08/13 09:29:31;;;;;;;8.55;2.33;;;21.60;99.90;;;21.21;66.08;100707.78;4990142;28;20137;-87
2023/08/13 09:31:59;;;;;;;8.85;1.80;;;21.50;99.90;;;21.22;66.21;100708.59;4999515;28;20050;-87
2023/08/13 09:34:28;;;;;;;8.18;1.80;;;21.50;99.90;;;21.23;63.48;100705.63;4978977;28;20050;-87
2023/08/13 09:37:01;;;;;;;8.20;2.15;;;21.50;98.70;;;21.23;63.25;100707.53;4996170;28;20046;-87
2023/08/13 09:39:31;;;;;;;7.60;2.10;;;21.60;98.00;;;21.24;65.31;100706.44;4978790;28;20042;-87
2023/08/13 09:42:00;;;;;;;6.40;2.00;;;21.60;99.90;;;21.32;65.56;100705.88;4996841;28;20047;-87
2023/08/13 09:44:29;;;;;;;13.10;2.10;;;21.70;99.90;;;21.34;66.31;100701.00;4989877;28;20051;-87
2023/08/13 09:47:01;;;;;;;11.27;2.40;;;21.70;99.90;;;21.39;66.86;100700.97;4997138;28;20050;-87
2023/08/13 09:49:31;;;;;;;8.23;2.00;;;21.70;99.90;;;21.38;65.51;100693.13;4996732;28;20043;-87
2023/08/13 09:52:02;;;;;;;6.80;2.00;;;21.70;99.90;;;21.37;64.60;100695.00;4998159;28;20467;-87
2023/08/13 09:54:42;;;;;;;5.90;1.88;;;21.70;99.50;;;21.37;64.95;100688.75;4972995;28;20451;-87
2023/08/13 09:57:10;;;;;;;9.07;2.47;;;21.60;99.90;;;21.36;63.99;100687.13;4992805;28;20047;-86
2023/08/13 09:59:38;;;;;;;7.50;1.98;;;21.60;98.90;;;21.36;64.01;100684.44;4975785;28;20123;-85
2023/08/13 10:02:07;;;;;;;9.23;1.90;;;21.60;98.90;;;21.38;63.92;100684.97;4985991;28;20491;-86
2023/08/13 10:04:35;;;;;;;8.27;2.28;;;21.70;99.10;;;21.43;64.84;100679.53;4989020;28;20519;-85
2023/08/13 10:07:05;;;;;;;8.63;2.10;;;21.70;99.70;;;21.51;66.69;100678.94;5001144;28;20050;-86
2023/08/13 10:09:34;;;;;;;10.65;2.33;;;21.80;99.90;;;21.59;64.45;100675.63;4983255;28;20097;-85
2023/08/13 10:12:02;;;;;;;8.63;2.17;;;21.90;99.20;;;21.65;62.99;100674.50;4975780;28;20145;-85
2023/08/13 10:14:31;;;;;;;8.50;2.13;;;22.00;97.60;;;21.71;63.65;100667.16;4975129;28;20133;-85